MKC weather

Charles B. Wheeler Downtown Airport
Kansas City, Missouri, United States

Public forecast

Using degrees Fahrenheit for public forecast. Weather courtesy of forecast.io.

Current aviation weather report (METAR) for Charles B. Wheeler Downtown Airport

Retrieved 2019/11/12 15:54 UTC (2 hours ago):

KMKC 121554Z 00000KT 10SM CLR M09/M16 A3066 RMK AO2 SLP398 T10941161

Aviation forecast (TAF) for Charles B. Wheeler Downtown Airport

Retrieved 2019/11/12 12:22 UTC (5 hours ago):

TAF KMKC 121120Z 1212/1312 VRB06KT P6SM SKC FM130100 18011KT P6SM FEW250